createdAt,value
2023-05-15T00:00:15.255Z,72.03
2023-05-15T00:01:17.794Z,72.89
2023-05-15T00:02:19.773Z,72.75
2023-05-15T00:03:21.900Z,73.70
2023-05-15T00:04:23.906Z,74.79
2023-05-15T00:05:26.241Z,74.51
2023-05-15T00:06:28.622Z,74.30
2023-05-15T00:07:30.791Z,73.10
2023-05-15T00:08:32.629Z,73.20
2023-05-15T00:09:34.594Z,73.45
2023-05-15T00:10:37.300Z,73.38
2023-05-15T00:11:39.350Z,74.48
2023-05-15T00:12:41.299Z,73.41
2023-05-15T00:13:43.164Z,73.41
2023-05-15T00:14:44.996Z,72.80
2023-05-15T00:15:46.887Z,72.47
2023-05-15T00:16:48.907Z,71.84
2023-05-15T00:17:50.790Z,71.34
2023-05-15T00:18:52.803Z,71.50
2023-05-15T00:19:54.833Z,71.52
2023-05-15T00:20:56.772Z,71.44
2023-05-15T00:21:58.623Z,71.93
2023-05-15T00:23:00.471Z,71.68
2023-05-15T00:24:03.186Z,71.87
2023-05-15T00:25:06.173Z,71.93
2023-05-15T00:26:08.348Z,72.66
2023-05-15T00:27:10.229Z,73.21
2023-05-15T00:28:12.198Z,73.09
2023-05-15T00:29:14.042Z,72.22
2023-05-15T00:30:16.235Z,72.87
2023-05-15T00:31:18.176Z,73.03
2023-05-15T00:32:20.336Z,76.72
2023-05-15T00:33:22.195Z,75.63
2023-05-15T00:34:24.650Z,76.36
2023-05-15T00:35:26.791Z,78.31
2023-05-15T00:36:28.994Z,78.52
2023-05-15T00:37:30.978Z,77.84
2023-05-15T00:38:32.880Z,77.17
2023-05-15T00:39:35.617Z,77.27
2023-05-15T00:40:39.669Z,77.89
2023-05-15T00:41:44.444Z,78.74
2023-05-15T00:42:47.466Z,79.06
2023-05-15T00:43:50.347Z,78.49
2023-05-15T00:44:53.493Z,77.07
2023-05-15T00:45:57.114Z,76.06
2023-05-15T00:47:02.608Z,76.84
2023-05-15T00:48:06.912Z,77.73
2023-05-15T00:49:09.925Z,78.94
2023-05-15T00:50:12.735Z,79.17
2023-05-15T00:51:15.298Z,78.96
2023-05-15T00:52:17.573Z,79.46
2023-05-15T00:53:19.648Z,79.70
2023-05-15T00:54:21.650Z,79.89
2023-05-15T00:55:27.975Z,80.03
2023-05-15T00:56:32.288Z,80.68
2023-05-15T00:57:35.213Z,81.45
2023-05-15T00:58:38.143Z,81.67
2023-05-15T00:59:41.887Z,81.67
2023-05-15T01:00:46.222Z,80.58
2023-05-15T01:01:49.720Z,80.17
2023-05-15T01:02:53.214Z,78.84
2023-05-15T01:03:55.472Z,77.56
2023-05-15T01:04:57.864Z,77.21
2023-05-15T01:06:00.172Z,75.81
2023-05-15T01:07:02.831Z,75.62
2023-05-15T01:08:14.486Z,75.07
2023-05-15T01:09:18.305Z,74.95
2023-05-15T01:10:21.115Z,74.75
2023-05-15T01:11:26.419Z,75.23
2023-05-15T01:12:31.267Z,76.17
2023-05-15T01:13:33.748Z,77.34
2023-05-15T01:14:35.615Z,78.88
2023-05-15T01:15:37.589Z,80.13
2023-05-15T01:16:39.742Z,81.08
2023-05-15T01:17:41.976Z,82.67
2023-05-15T01:18:44.160Z,83.24
2023-05-15T01:19:50.066Z,83.30
2023-05-15T01:21:15.703Z,83.12
2023-05-15T01:22:26.960Z,84.42
2023-05-15T01:23:58.827Z,83.93
2023-05-15T01:25:24.843Z,84.21
2023-05-15T01:26:55.403Z,83.56
2023-05-15T01:29:43.526Z,83.89
2023-05-15T01:30:48.037Z,83.80
2023-05-15T01:31:53.671Z,84.27
2023-05-15T01:33:20.038Z,83.37
2023-05-15T01:34:25.209Z,82.81
2023-05-15T01:35:39.813Z,83.41
2023-05-15T01:36:51.855Z,83.46
2023-05-15T01:39:17.196Z,82.22
2023-05-15T01:40:22.983Z,81.80
2023-05-15T01:41:34.491Z,82.66
2023-05-15T01:42:40.185Z,82.87
2023-05-15T01:43:45.230Z,82.16
2023-05-15T01:44:51.006Z,81.49
2023-05-15T01:45:54.717Z,81.03
2023-05-15T01:47:06.285Z,80.17
2023-05-15T01:48:10.122Z,79.58
2023-05-15T01:49:16.627Z,79.42
2023-05-15T01:50:20.677Z,79.48
2023-05-15T01:51:25.711Z,78.83
2023-05-15T01:52:34.140Z,78.70
2023-05-15T01:53:37.756Z,78.15
2023-05-15T01:54:41.735Z,79.33
2023-05-15T01:55:44.904Z,78.94
2023-05-15T01:56:47.675Z,78.75
2023-05-15T01:57:51.539Z,79.27
2023-05-15T01:58:55.350Z,78.90
2023-05-15T01:59:59.145Z,78.44
2023-05-15T02:01:01.540Z,78.45
2023-05-15T02:02:07.852Z,79.38
2023-05-15T02:03:10.832Z,79.34
2023-05-15T02:04:13.692Z,79.28
2023-05-15T02:05:17.206Z,78.99
2023-05-15T02:06:20.718Z,78.87
2023-05-15T02:07:24.218Z,78.83
2023-05-15T02:08:26.820Z,78.62
2023-05-15T02:09:31.090Z,78.73
2023-05-15T02:10:34.786Z,78.66
2023-05-15T02:11:38.856Z,78.61
2023-05-15T02:12:41.794Z,78.66
2023-05-15T02:13:44.165Z,79.35
2023-05-15T02:14:48.613Z,80.75
2023-05-15T02:15:50.729Z,80.97
2023-05-15T02:16:52.973Z,80.63
2023-05-15T02:17:55.145Z,80.68
2023-05-15T02:18:57.321Z,81.21
2023-05-15T02:19:59.311Z,82.05
2023-05-15T02:21:01.321Z,82.95
2023-05-15T02:22:03.431Z,81.66
2023-05-15T02:23:05.299Z,81.64
2023-05-15T02:24:07.143Z,80.80
2023-05-15T02:25:09.042Z,81.06
2023-05-15T02:26:24.562Z,80.21
2023-05-15T02:27:29.659Z,80.93
2023-05-15T02:28:35.343Z,80.21
2023-05-15T02:29:57.595Z,81.39
2023-05-15T02:32:34.911Z,82.07
2023-05-15T02:33:46.621Z,82.02
2023-05-15T02:35:09.052Z,81.59
2023-05-15T02:36:15.021Z,80.29
2023-05-15T02:37:20.810Z,79.71
2023-05-15T02:38:26.581Z,80.02
2023-05-15T02:39:31.415Z,80.65
2023-05-15T02:40:35.434Z,82.45
2023-05-15T02:41:40.294Z,82.97
2023-05-15T02:42:45.231Z,82.34
2023-05-15T02:43:51.890Z,82.17
2023-05-15T02:44:55.206Z,82.39
2023-05-15T02:45:58.920Z,82.28
2023-05-15T02:47:01.710Z,82.71
2023-05-15T02:48:05.595Z,81.88
2023-05-15T02:49:08.884Z,81.02
2023-05-15T02:50:13.361Z,80.46
2023-05-15T02:51:15.332Z,80.05
2023-05-15T02:52:17.535Z,80.06
2023-05-15T02:53:19.721Z,80.08
2023-05-15T02:54:22.179Z,80.31
2023-05-15T02:55:24.350Z,80.77
2023-05-15T02:56:26.666Z,80.92
2023-05-15T02:57:29.007Z,79.71
2023-05-15T02:58:31.806Z,79.25
2023-05-15T02:59:35.200Z,78.84
2023-05-15T03:00:37.282Z,79.18
2023-05-15T03:01:39.295Z,80.66
2023-05-15T03:02:41.719Z,81.17
2023-05-15T03:03:43.697Z,81.66
2023-05-15T03:04:46.077Z,80.73
2023-05-15T03:05:48.723Z,79.91
2023-05-15T03:06:51.238Z,79.61
2023-05-15T03:07:53.279Z,79.38
2023-05-15T03:08:55.314Z,78.99
2023-05-15T03:09:57.171Z,78.88
2023-05-15T03:10:59.261Z,79.25
2023-05-15T03:12:01.225Z,78.62
2023-05-15T03:13:03.208Z,78.94
2023-05-15T03:14:05.122Z,78.42
2023-05-15T03:15:08.153Z,79.53
2023-05-15T03:16:10.423Z,79.14
2023-05-15T03:17:12.486Z,78.37
2023-05-15T03:18:17.300Z,78.27
2023-05-15T03:19:19.088Z,77.99
2023-05-15T03:20:22.028Z,78.14
2023-05-15T03:21:24.166Z,79.83
2023-05-15T03:22:26.205Z,79.40
2023-05-15T03:23:28.172Z,79.43
2023-05-15T03:24:30.278Z,79.51
2023-05-15T03:25:32.307Z,79.05
2023-05-15T03:26:34.277Z,79.05
2023-05-15T03:27:36.774Z,78.54
2023-05-15T03:28:39.649Z,80.05
2023-05-15T03:29:42.663Z,79.07
2023-05-15T03:30:45.547Z,78.92
2023-05-15T03:31:47.447Z,79.70
2023-05-15T03:32:50.324Z,79.72
2023-05-15T03:33:53.154Z,78.92
2023-05-15T03:34:55.295Z,78.12
2023-05-15T03:35:57.360Z,77.87
2023-05-15T03:36:59.325Z,78.20
2023-05-15T03:38:01.292Z,77.68
2023-05-15T03:39:03.231Z,78.01
2023-05-15T03:40:07.079Z,78.48
2023-05-15T03:41:10.733Z,78.80
2023-05-15T03:42:12.669Z,78.96
2023-05-15T03:43:14.630Z,78.65
2023-05-15T03:44:16.499Z,78.43
2023-05-15T03:45:19.208Z,78.16
2023-05-15T03:46:21.422Z,77.79
2023-05-15T03:47:25.006Z,77.23
2023-05-15T03:48:27.136Z,76.82
2023-05-15T03:49:29.082Z,76.47
2023-05-15T03:50:31.335Z,76.28
2023-05-15T03:51:33.303Z,75.95
2023-05-15T03:52:35.296Z,75.80
2023-05-15T03:53:37.679Z,75.71
2023-05-15T03:54:40.194Z,75.53
2023-05-15T03:55:42.158Z,75.95
2023-05-15T03:56:44.258Z,75.45
2023-05-15T03:57:46.116Z,75.17
2023-05-15T03:58:47.990Z,75.00
2023-05-15T03:59:49.860Z,74.72
2023-05-15T04:00:51.901Z,74.60
2023-05-15T04:02:04.112Z,74.59
2023-05-15T04:02:57.702Z,75.28
2023-05-15T04:03:59.701Z,74.98
2023-05-15T04:05:06.967Z,74.52
2023-05-15T04:06:09.363Z,74.38
2023-05-15T04:07:11.250Z,74.19
2023-05-15T04:08:13.132Z,74.03
2023-05-15T04:09:15.119Z,73.80
2023-05-15T04:10:18.651Z,73.65
2023-05-15T04:11:20.506Z,73.67
2023-05-15T04:12:22.387Z,73.57
2023-05-15T04:13:24.547Z,73.20
2023-05-15T04:14:28.860Z,72.91
2023-05-15T04:15:30.734Z,72.57
2023-05-15T04:16:32.724Z,72.13
2023-05-15T04:17:34.828Z,71.70
2023-05-15T04:18:36.912Z,71.25
2023-05-15T04:19:40.383Z,70.93
2023-05-15T04:20:43.046Z,70.73
2023-05-15T04:21:44.901Z,70.21
2023-05-15T04:22:48.194Z,69.70
2023-05-15T04:23:50.059Z,69.12
2023-05-15T04:24:51.913Z,69.44
2023-05-15T04:25:53.969Z,69.14
2023-05-15T04:26:56.148Z,68.87
2023-05-15T04:27:58.636Z,69.78
2023-05-15T04:29:04.590Z,70.34
2023-05-15T04:30:06.338Z,70.97
2023-05-15T04:31:08.238Z,70.13
2023-05-15T04:32:10.244Z,69.24
2023-05-15T04:33:13.352Z,70.23
2023-05-15T04:34:15.490Z,71.12
2023-05-15T04:35:17.412Z,70.04
2023-05-15T04:36:19.732Z,69.42
2023-05-15T04:37:21.914Z,68.75
2023-05-15T04:38:23.803Z,67.71
2023-05-15T04:39:26.866Z,67.04
2023-05-15T04:40:29.158Z,66.51
2023-05-15T04:41:31.114Z,66.58
2023-05-15T04:42:33.814Z,66.62
2023-05-15T04:43:35.661Z,66.40
2023-05-15T04:44:37.563Z,66.61
2023-05-15T04:45:39.434Z,66.73
2023-05-15T04:46:41.743Z,66.39
2023-05-15T04:47:43.738Z,67.49
2023-05-15T04:48:45.849Z,67.73
2023-05-15T04:49:47.845Z,67.29
2023-05-15T04:50:50.179Z,67.17
2023-05-15T04:51:52.187Z,66.49
2023-05-15T04:52:54.163Z,65.44
2023-05-15T04:53:56.309Z,63.93
2023-05-15T04:54:58.249Z,63.97
2023-05-15T04:56:00.252Z,64.30
2023-05-15T04:57:02.448Z,64.25
2023-05-15T04:58:04.472Z,63.66
2023-05-15T04:59:06.351Z,62.95
2023-05-15T05:00:10.056Z,62.07
2023-05-15T05:01:12.198Z,60.79
2023-05-15T05:02:14.242Z,60.01
2023-05-15T05:03:16.505Z,59.35
2023-05-15T05:04:18.527Z,59.87
2023-05-15T05:05:20.394Z,59.86
2023-05-15T05:06:23.454Z,59.46
2023-05-15T05:07:25.420Z,59.11
2023-05-15T05:08:27.392Z,59.47
2023-05-15T05:09:29.258Z,58.95
2023-05-15T05:10:31.553Z,57.66
2023-05-15T05:11:33.533Z,56.74
2023-05-15T05:12:35.589Z,56.95
2023-05-15T05:13:37.451Z,57.13
2023-05-15T05:14:39.582Z,56.40
2023-05-15T05:15:41.626Z,56.95
2023-05-15T05:16:44.690Z,56.95
2023-05-15T05:17:46.687Z,56.11
2023-05-15T05:18:48.697Z,55.77
2023-05-15T05:19:50.717Z,55.44
2023-05-15T05:21:02.036Z,55.27
2023-05-15T05:22:07.108Z,55.08
2023-05-15T05:23:09.057Z,55.12
2023-05-15T05:24:12.038Z,54.83
2023-05-15T05:25:13.929Z,53.23
2023-05-15T05:26:16.122Z,51.58
2023-05-15T05:27:18.326Z,53.63
2023-05-15T05:28:20.544Z,53.99
2023-05-15T05:29:22.832Z,55.02
2023-05-15T05:30:24.845Z,53.43
2023-05-15T05:31:26.914Z,52.02
2023-05-15T05:32:28.927Z,53.05
2023-05-15T05:33:30.884Z,52.02
2023-05-15T05:34:32.776Z,50.25
2023-05-15T05:35:34.755Z,48.87
2023-05-15T05:36:36.945Z,48.42
2023-05-15T05:37:41.130Z,48.99
2023-05-15T05:38:43.310Z,48.50
2023-05-15T05:39:45.296Z,48.26
2023-05-15T05:40:47.266Z,47.13
2023-05-15T05:41:49.241Z,47.32
2023-05-15T05:42:51.254Z,47.48
2023-05-15T05:43:53.248Z,46.35
2023-05-15T05:44:55.113Z,45.63
2023-05-15T05:45:57.017Z,44.98
2023-05-15T05:46:59.124Z,45.37
2023-05-15T05:48:01.117Z,46.08
2023-05-15T05:49:03.517Z,45.21
2023-05-15T05:50:07.209Z,44.42
2023-05-15T05:51:09.142Z,44.22
2023-05-15T05:52:11.121Z,43.82
2023-05-15T05:53:13.083Z,44.46
2023-05-15T05:54:14.950Z,43.69
2023-05-15T05:55:16.916Z,42.76
2023-05-15T05:56:18.889Z,42.81
2023-05-15T05:57:20.861Z,42.33
2023-05-15T05:58:26.093Z,42.65
2023-05-15T05:59:26.958Z,42.03
2023-05-15T06:00:29.304Z,40.21
2023-05-15T06:01:31.828Z,39.92
2023-05-15T06:02:34.112Z,40.58
2023-05-15T06:03:37.511Z,39.26
2023-05-15T06:04:39.786Z,39.21
2023-05-15T06:05:42.252Z,38.72
2023-05-15T06:06:44.224Z,39.08
2023-05-15T06:07:46.065Z,39.77
2023-05-15T06:08:48.074Z,40.48
2023-05-15T06:09:49.950Z,39.85
2023-05-15T06:10:52.016Z,39.11
2023-05-15T06:11:54.138Z,38.83
2023-05-15T06:12:55.988Z,38.73
2023-05-15T06:13:57.875Z,37.78
2023-05-15T06:14:59.749Z,36.92
2023-05-15T06:16:01.610Z,36.54
2023-05-15T06:17:04.414Z,36.06
2023-05-15T06:18:06.894Z,35.88
2023-05-15T06:19:09.586Z,35.29
2023-05-15T06:20:12.323Z,34.67
2023-05-15T06:21:14.409Z,35.34
2023-05-15T06:22:17.828Z,35.95
2023-05-15T06:23:20.080Z,36.25
2023-05-15T06:24:22.248Z,36.52
2023-05-15T06:25:24.456Z,36.50
2023-05-15T06:26:28.022Z,36.47
2023-05-15T06:27:30.322Z,36.18
2023-05-15T06:28:32.202Z,36.03
2023-05-15T06:29:34.051Z,35.61
2023-05-15T06:30:36.373Z,35.24
2023-05-15T06:31:38.526Z,34.73
2023-05-15T06:32:40.963Z,34.37
2023-05-15T06:33:42.915Z,34.42
2023-05-15T06:34:44.765Z,34.26
2023-05-15T06:35:46.935Z,33.60
2023-05-15T06:36:49.323Z,33.02
2023-05-15T06:37:51.178Z,32.43
2023-05-15T06:38:53.030Z,32.37
2023-05-15T06:39:54.929Z,32.16
2023-05-15T06:40:56.975Z,32.27
2023-05-15T06:41:59.251Z,32.37
2023-05-15T06:43:01.143Z,32.52
2023-05-15T06:44:04.237Z,32.97
2023-05-15T06:45:07.065Z,32.60
2023-05-15T06:46:09.285Z,32.55
2023-05-15T06:47:11.285Z,31.87
2023-05-15T06:48:13.450Z,31.78
2023-05-15T06:49:15.421Z,31.79
2023-05-15T06:50:17.690Z,31.56
2023-05-15T06:51:19.865Z,31.13
2023-05-15T06:52:21.750Z,31.03
2023-05-15T06:53:23.925Z,30.54
2023-05-15T06:54:25.807Z,30.83
2023-05-15T06:55:27.850Z,31.05
2023-05-15T06:56:30.984Z,32.05
2023-05-15T06:57:33.356Z,31.34
2023-05-15T06:58:35.418Z,30.77
2023-05-15T06:59:37.324Z,30.47
2023-05-15T07:00:39.274Z,30.65
2023-05-15T07:01:41.250Z,30.94
2023-05-15T07:02:43.215Z,30.49
2023-05-15T07:03:45.221Z,30.29
2023-05-15T07:04:47.218Z,30.57
2023-05-15T07:05:49.155Z,30.70
2023-05-15T07:06:51.220Z,30.85
2023-05-15T07:07:54.242Z,30.95
2023-05-15T07:08:56.114Z,31.59
2023-05-15T07:09:58.133Z,32.31
2023-05-15T07:11:00.199Z,32.38
2023-05-15T07:12:02.207Z,32.38
2023-05-15T07:13:04.144Z,32.35
2023-05-15T07:14:06.136Z,31.93
2023-05-15T07:15:10.873Z,32.78
2023-05-15T07:16:13.044Z,32.06
2023-05-15T07:17:15.069Z,32.95
2023-05-15T07:18:17.547Z,32.48
2023-05-15T07:19:19.699Z,32.85
2023-05-15T07:20:21.730Z,32.62
2023-05-15T07:21:23.692Z,31.99
2023-05-15T07:22:27.380Z,30.16
2023-05-15T07:23:29.447Z,29.18
2023-05-15T07:24:31.470Z,29.20
2023-05-15T07:25:33.790Z,29.03
2023-05-15T07:26:41.001Z,28.62
2023-05-15T07:27:39.921Z,28.97
2023-05-15T07:28:41.958Z,29.46
2023-05-15T07:29:43.887Z,29.94
2023-05-15T07:30:46.182Z,29.84
2023-05-15T07:31:48.136Z,27.88
2023-05-15T07:32:50.268Z,27.86
2023-05-15T07:33:52.249Z,27.61
2023-05-15T07:34:54.268Z,27.50
2023-05-15T07:35:56.145Z,26.95
2023-05-15T07:36:58.232Z,27.38
2023-05-15T07:38:00.214Z,27.27
2023-05-15T07:39:02.461Z,26.46
2023-05-15T07:40:05.975Z,26.51
2023-05-15T07:41:08.027Z,27.16
2023-05-15T07:42:10.055Z,27.07
2023-05-15T07:43:11.920Z,27.20
2023-05-15T07:44:13.840Z,26.79
2023-05-15T07:45:15.766Z,26.90
2023-05-15T07:46:19.014Z,27.22
2023-05-15T07:47:22.020Z,27.51
2023-05-15T07:48:23.961Z,27.36
2023-05-15T07:49:25.874Z,27.59
2023-05-15T07:50:27.941Z,27.44
2023-05-15T07:51:29.914Z,27.12
2023-05-15T07:52:31.821Z,27.28
2023-05-15T07:53:33.806Z,27.35
2023-05-15T07:54:35.730Z,28.18
2023-05-15T07:55:37.879Z,28.24
2023-05-15T07:56:40.995Z,27.60
2023-05-15T07:57:43.154Z,27.41
2023-05-15T07:58:45.190Z,27.78
2023-05-15T07:59:47.383Z,27.51
2023-05-15T08:00:49.474Z,27.45
2023-05-15T08:01:51.376Z,27.53
2023-05-15T08:02:53.322Z,27.89
2023-05-15T08:03:55.408Z,27.92
2023-05-15T08:04:57.547Z,27.52
2023-05-15T08:05:59.502Z,27.37
2023-05-15T08:07:01.734Z,27.50
2023-05-15T08:08:03.795Z,27.42
2023-05-15T08:09:05.662Z,27.16
2023-05-15T08:10:09.086Z,27.14
2023-05-15T08:11:10.988Z,27.69
2023-05-15T08:12:18.750Z,27.38
2023-05-15T08:13:20.637Z,27.91
2023-05-15T08:14:22.568Z,28.49
2023-05-15T08:15:24.836Z,28.59
2023-05-15T08:16:29.580Z,28.45
2023-05-15T08:17:31.643Z,28.17
2023-05-15T08:18:33.626Z,27.92
2023-05-15T08:19:36.189Z,26.68
2023-05-15T08:20:38.528Z,26.50
2023-05-15T08:21:40.500Z,26.62
2023-05-15T08:22:42.476Z,26.71
2023-05-15T08:23:44.397Z,26.20
2023-05-15T08:24:46.557Z,25.98
2023-05-15T08:25:48.435Z,26.36
2023-05-15T08:26:50.982Z,26.50
2023-05-15T08:27:52.837Z,26.25
2023-05-15T08:28:54.848Z,26.35
2023-05-15T08:29:56.679Z,25.92
2023-05-15T08:30:59.017Z,26.26
2023-05-15T08:32:01.813Z,26.54
2023-05-15T08:33:03.735Z,26.38
2023-05-15T08:34:05.901Z,26.60
2023-05-15T08:35:09.278Z,26.44
2023-05-15T08:36:11.808Z,26.37
2023-05-15T08:37:13.870Z,26.71
2023-05-15T08:38:15.827Z,26.83
2023-05-15T08:39:18.123Z,26.43
2023-05-15T08:40:25.711Z,26.52
2023-05-15T08:42:51.592Z,26.34
2023-05-15T08:43:56.351Z,25.87
2023-05-15T08:44:59.740Z,25.57
2023-05-15T08:46:02.674Z,26.18
2023-05-15T08:47:05.560Z,25.87
2023-05-15T08:48:18.664Z,26.30
2023-05-15T08:49:30.357Z,26.11
2023-05-15T08:50:33.326Z,25.75
2023-05-15T08:51:35.290Z,25.42
2023-05-15T08:52:38.414Z,24.37
2023-05-15T08:53:40.555Z,25.40
2023-05-15T08:54:42.418Z,25.69
2023-05-15T08:55:44.462Z,26.51
2023-05-15T08:56:47.543Z,26.16
2023-05-15T08:57:50.388Z,25.76
2023-05-15T08:58:52.799Z,25.76
2023-05-15T08:59:56.317Z,25.93
2023-05-15T09:00:58.790Z,25.70
2023-05-15T09:02:01.620Z,25.73
2023-05-15T09:03:04.628Z,25.67
2023-05-15T09:04:06.755Z,25.84
2023-05-15T09:05:10.044Z,25.12
2023-05-15T09:06:13.651Z,24.61
2023-05-15T09:07:16.178Z,24.98
2023-05-15T09:08:20.696Z,25.09
2023-05-15T09:09:24.112Z,25.15
2023-05-15T09:10:26.438Z,25.57
2023-05-15T09:11:30.850Z,25.68
2023-05-15T09:12:35.674Z,25.98
2023-05-15T09:13:37.605Z,26.14
2023-05-15T09:14:39.694Z,26.19
2023-05-15T09:15:42.084Z,26.60
2023-05-15T09:16:44.563Z,26.66
2023-05-15T09:17:48.628Z,25.78
2023-05-15T09:18:52.016Z,25.76
2023-05-15T09:19:54.075Z,25.81
2023-05-15T09:20:57.990Z,26.03
2023-05-15T09:22:20.176Z,26.47
2023-05-15T09:23:25.195Z,26.66
2023-05-15T09:24:27.238Z,26.32
2023-05-15T09:25:34.752Z,26.56
2023-05-15T09:26:36.836Z,25.91
2023-05-15T09:27:45.145Z,25.64
2023-05-15T09:28:49.379Z,25.80
2023-05-15T09:29:51.434Z,25.76
2023-05-15T09:32:13.260Z,25.38
2023-05-15T09:33:16.789Z,25.23
2023-05-15T09:34:18.796Z,25.20
2023-05-15T09:35:36.066Z,25.20
2023-05-15T09:36:43.099Z,25.09
2023-05-15T09:37:45.128Z,25.32
2023-05-15T09:38:46.970Z,25.78
2023-05-15T09:39:48.819Z,25.51
2023-05-15T09:41:03.261Z,25.69
2023-05-15T09:42:06.573Z,25.70
2023-05-15T09:43:11.474Z,25.08
2023-05-15T09:44:22.111Z,25.35
2023-05-15T09:45:25.591Z,25.82
2023-05-15T09:46:28.614Z,25.08
2023-05-15T09:47:31.044Z,25.72
2023-05-15T09:48:34.698Z,25.77
2023-05-15T09:49:38.866Z,25.63
2023-05-15T09:50:41.051Z,25.34
2023-05-15T09:51:43.585Z,24.95
2023-05-15T09:52:45.705Z,24.53
2023-05-15T09:53:49.795Z,24.95
2023-05-15T09:54:51.797Z,25.49
2023-05-15T09:55:53.976Z,25.09
2023-05-15T09:56:56.382Z,25.54
2023-05-15T09:58:06.759Z,25.20
2023-05-15T09:59:14.696Z,25.34
2023-05-15T10:00:19.074Z,24.86
2023-05-15T10:01:22.757Z,25.05
2023-05-15T10:02:28.702Z,25.53
2023-05-15T10:03:30.971Z,25.22
2023-05-15T10:04:35.975Z,25.18
2023-05-15T10:05:43.522Z,25.07
2023-05-15T10:06:46.561Z,24.72
2023-05-15T10:07:52.189Z,24.62
2023-05-15T10:08:54.710Z,24.51
2023-05-15T10:09:57.203Z,24.74
2023-05-15T10:11:00.955Z,24.96
2023-05-15T10:12:04.936Z,25.25
2023-05-15T10:13:08.601Z,25.25
2023-05-15T10:14:13.318Z,24.84
2023-05-15T10:15:19.693Z,24.74
2023-05-15T10:16:23.165Z,25.46
2023-05-15T10:17:30.695Z,25.36
2023-05-15T10:18:35.327Z,25.36
2023-05-15T10:19:50.458Z,24.00
2023-05-15T10:20:42.509Z,23.84
2023-05-15T10:21:45.277Z,24.11
2023-05-15T10:24:00.749Z,24.65
2023-05-15T10:25:23.258Z,24.89
2023-05-15T10:27:46.909Z,25.35
2023-05-15T10:28:49.560Z,25.32
2023-05-15T10:29:51.774Z,25.42
2023-05-15T10:30:56.491Z,25.11
2023-05-15T10:32:00.813Z,24.86
2023-05-15T10:33:07.242Z,24.65
2023-05-15T10:34:11.239Z,24.91
2023-05-15T10:35:14.433Z,24.70
2023-05-15T10:36:18.647Z,25.09
2023-05-15T10:37:21.740Z,24.92
2023-05-15T10:38:25.139Z,25.06
2023-05-15T10:39:28.440Z,25.23
2023-05-15T10:40:32.339Z,25.67
2023-05-15T10:41:39.243Z,25.07
2023-05-15T10:42:44.109Z,24.96
2023-05-15T10:43:49.036Z,25.14
2023-05-15T10:44:52.932Z,24.98
2023-05-15T10:45:56.201Z,25.02
2023-05-15T10:46:59.239Z,25.15
2023-05-15T10:48:02.297Z,25.32
2023-05-15T10:49:04.880Z,25.69
2023-05-15T10:50:08.794Z,25.36
2023-05-15T10:51:28.470Z,25.61
2023-05-15T10:52:35.229Z,25.67
2023-05-15T10:53:37.241Z,25.78
2023-05-15T10:54:39.247Z,25.46
2023-05-15T10:55:41.411Z,25.61
2023-05-15T10:56:44.309Z,25.38
2023-05-15T10:57:46.477Z,24.95
2023-05-15T10:58:49.556Z,25.19
2023-05-15T10:59:51.645Z,25.46
2023-05-15T11:00:53.900Z,25.85
2023-05-15T11:01:57.696Z,25.85
2023-05-15T11:02:59.701Z,25.96
2023-05-15T11:04:07.414Z,25.48
2023-05-15T11:05:09.616Z,25.96
2023-05-15T11:06:12.388Z,25.87
2023-05-15T11:07:17.179Z,25.91
2023-05-15T11:08:23.863Z,26.09
2023-05-15T11:09:36.634Z,26.30
2023-05-15T11:10:39.069Z,27.14
2023-05-15T11:11:58.260Z,27.13
2023-05-15T11:13:01.980Z,26.69
2023-05-15T11:14:07.648Z,26.52
2023-05-15T11:15:13.287Z,26.40
2023-05-15T11:16:35.946Z,26.46
2023-05-15T11:17:38.147Z,26.57
2023-05-15T11:18:40.129Z,26.85
2023-05-15T11:19:51.813Z,26.94
2023-05-15T11:21:00.772Z,27.07
2023-05-15T11:22:17.638Z,26.96
2023-05-15T11:23:24.527Z,27.25
2023-05-15T11:24:32.158Z,26.59
2023-05-15T11:25:36.051Z,26.75
2023-05-15T11:26:42.781Z,26.42
2023-05-15T11:27:45.761Z,26.66
2023-05-15T11:28:47.606Z,26.76
2023-05-15T11:30:16.523Z,26.74
2023-05-15T11:31:22.299Z,27.10
2023-05-15T11:32:31.968Z,27.46
2023-05-15T11:33:34.056Z,26.94
2023-05-15T11:34:39.756Z,26.72
2023-05-15T11:35:44.587Z,26.54
2023-05-15T11:36:47.074Z,27.20
2023-05-15T11:37:53.132Z,26.49
2023-05-15T11:38:55.626Z,26.78
2023-05-15T11:39:57.603Z,27.11
2023-05-15T11:40:59.996Z,26.94
2023-05-15T11:42:11.410Z,27.00
2023-05-15T11:43:22.529Z,26.02
2023-05-15T11:44:24.340Z,25.59
2023-05-15T11:45:29.008Z,26.28
2023-05-15T11:46:32.559Z,26.56
2023-05-15T11:47:34.847Z,26.28
2023-05-15T11:48:43.018Z,25.94
2023-05-15T11:49:45.180Z,25.78
2023-05-15T11:50:47.153Z,25.60
2023-05-15T11:51:50.460Z,25.59
2023-05-15T11:52:52.789Z,25.27
2023-05-15T11:53:56.463Z,25.47
2023-05-15T11:54:59.506Z,25.64
2023-05-15T11:56:01.395Z,26.08
2023-05-15T11:57:06.941Z,26.19
2023-05-15T11:58:17.129Z,26.04
2023-05-15T11:59:20.645Z,25.78
2023-05-15T12:00:23.473Z,25.16
2023-05-15T12:01:25.958Z,25.18
2023-05-15T12:02:27.941Z,25.75
2023-05-15T12:03:33.954Z,25.79
2023-05-15T12:04:36.600Z,25.67
2023-05-15T12:05:47.264Z,25.79
2023-05-15T12:06:45.124Z,26.03
2023-05-15T12:07:47.532Z,25.87
2023-05-15T12:08:53.358Z,25.35
2023-05-15T12:09:56.118Z,25.53
2023-05-15T12:10:59.378Z,25.53
2023-05-15T12:12:01.341Z,25.51
2023-05-15T12:13:03.216Z,25.36
2023-05-15T12:14:05.079Z,25.52
2023-05-15T12:15:15.590Z,25.64
2023-05-15T12:16:17.796Z,25.72
2023-05-15T12:17:20.139Z,25.60
2023-05-15T12:18:22.668Z,25.63
2023-05-15T12:20:39.715Z,25.37
2023-05-15T12:21:46.170Z,25.55
2023-05-15T12:22:48.101Z,25.74
2023-05-15T12:24:03.502Z,25.98
2023-05-15T12:24:58.920Z,25.44
2023-05-15T12:26:02.320Z,25.24
2023-05-15T12:27:04.663Z,25.04
2023-05-15T12:28:06.794Z,25.21
2023-05-15T12:29:09.058Z,25.28
2023-05-15T12:30:13.879Z,25.63
2023-05-15T12:31:18.459Z,25.54
2023-05-15T12:32:21.078Z,25.71
2023-05-15T12:33:24.139Z,25.43
2023-05-15T12:34:26.601Z,25.01
2023-05-15T12:35:29.411Z,24.78
2023-05-15T12:36:31.719Z,24.85
2023-05-15T12:37:35.659Z,25.28
2023-05-15T12:38:38.817Z,25.93
2023-05-15T12:39:54.860Z,26.46
2023-05-15T12:40:57.976Z,26.09
2023-05-15T12:42:00.176Z,25.99
2023-05-15T12:43:06.824Z,26.30
2023-05-15T12:44:17.998Z,26.18
2023-05-15T12:45:20.433Z,26.19
2023-05-15T12:46:24.765Z,26.57
2023-05-15T12:47:27.503Z,26.70
2023-05-15T12:48:30.308Z,26.75
2023-05-15T12:49:37.067Z,26.91
2023-05-15T12:50:40.474Z,26.88
2023-05-15T12:51:43.175Z,26.29
2023-05-15T12:52:58.819Z,26.42
2023-05-15T12:54:00.841Z,26.52
2023-05-15T12:55:03.098Z,26.34
2023-05-15T12:56:06.192Z,26.51
2023-05-15T12:57:10.690Z,26.57
2023-05-15T12:58:14.715Z,26.77
2023-05-15T12:59:18.047Z,27.20
2023-05-15T13:00:21.637Z,28.18
2023-05-15T13:01:23.622Z,28.70
2023-05-15T13:02:26.502Z,29.68
2023-05-15T13:03:31.819Z,29.36
2023-05-15T13:04:33.981Z,29.19
2023-05-15T13:05:37.653Z,28.76
2023-05-15T13:06:46.560Z,28.94
2023-05-15T13:07:44.344Z,28.51
2023-05-15T13:08:47.820Z,28.36
2023-05-15T13:10:06.938Z,28.16
2023-05-15T13:11:12.993Z,28.04
2023-05-15T13:12:19.482Z,28.49
2023-05-15T13:13:21.668Z,28.45
2023-05-15T13:14:23.830Z,28.90
2023-05-15T13:15:35.831Z,28.73
2023-05-15T13:16:38.133Z,28.43
2023-05-15T13:17:40.927Z,28.43
2023-05-15T13:18:42.974Z,28.23
2023-05-15T13:19:45.001Z,28.25
2023-05-15T13:20:49.936Z,28.26
2023-05-15T13:21:51.920Z,28.44
2023-05-15T13:22:53.997Z,28.88
2023-05-15T13:23:56.410Z,28.61
2023-05-15T13:24:58.514Z,28.14
2023-05-15T13:26:01.575Z,27.90
2023-05-15T13:27:04.260Z,27.88
2023-05-15T13:28:07.203Z,28.02
2023-05-15T13:29:09.188Z,28.05
2023-05-15T13:30:13.062Z,28.76
2023-05-15T13:31:15.020Z,29.03
2023-05-15T13:32:17.684Z,29.30
2023-05-15T13:33:19.608Z,28.95
2023-05-15T13:34:21.738Z,28.80
2023-05-15T13:35:23.835Z,28.63
2023-05-15T13:36:26.090Z,28.41
2023-05-15T13:37:28.072Z,29.21
2023-05-15T13:38:29.920Z,28.63
2023-05-15T13:39:32.777Z,28.26
2023-05-15T13:40:34.787Z,28.90
2023-05-15T13:41:36.985Z,28.64
2023-05-15T13:43:51.085Z,28.61
2023-05-15T13:44:53.017Z,28.94
2023-05-15T13:45:55.218Z,29.02
2023-05-15T13:46:57.294Z,29.18
2023-05-15T13:47:59.358Z,29.28
2023-05-15T13:49:01.395Z,29.87
2023-05-15T13:50:03.734Z,29.44
2023-05-15T13:51:05.618Z,29.35